sensor_id;sensor_type;location;lat;lon;timestamp;temperature;humidity
3562;DHT22;1795;52.074;4.754;2022-10-30T00:02:22;14.60;99.90
3562;DHT22;1795;52.074;4.754;2022-10-30T00:04:49;14.60;99.90
3562;DHT22;1795;52.074;4.754;2022-10-30T00:07:17;14.60;99.90
3562;DHT22;1795;52.074;4.754;2022-10-30T00:09:45;14.50;99.90
3562;DHT22;1795;52.074;4.754;2022-10-30T00:12:13;14.50;99.90
3562;DHT22;1795;52.074;4.754;2022-10-30T00:14:41;14.50;99.90
3562;DHT22;1795;52.074;4.754;2022-10-30T00:17:09;14.50;99.90
3562;DHT22;1795;52.074;4.754;2022-10-30T00:19:38;14.50;99.90
3562;DHT22;1795;52.074;4.754;2022-10-30T00:22:06;14.50;99.90
3562;DHT22;1795;52.074;4.754;2022-10-30T00:24:33;14.50;99.90
3562;DHT22;1795;52.074;4.754;2022-10-30T00:27:01;14.40;99.90
3562;DHT22;1795;52.074;4.754;2022-10-30T00:29:28;14.50;99.90
3562;DHT22;1795;52.074;4.754;2022-10-30T00:31:56;14.40;99.90
3562;DHT22;1795;52.074;4.754;2022-10-30T00:34:24;14.40;99.90
3562;DHT22;1795;52.074;4.754;2022-10-30T00:36:53;14.40;99.90
3562;DHT22;1795;52.074;4.754;2022-10-30T00:39:21;14.40;99.90
3562;DHT22;1795;52.074;4.754;2022-10-30T00:41:49;14.40;99.90
3562;DHT22;1795;52.074;4.754;2022-10-30T00:44:32;14.40;99.90
3562;DHT22;1795;52.074;4.754;2022-10-30T00:47:05;14.30;99.90
3562;DHT22;1795;52.074;4.754;2022-10-30T00:49:36;14.30;99.90
3562;DHT22;1795;52.074;4.754;2022-10-30T00:52:07;14.30;99.90
3562;DHT22;1795;52.074;4.754;2022-10-30T00:54:36;14.30;99.90
3562;DHT22;1795;52.074;4.754;2022-10-30T00:57:07;14.30;99.90
3562;DHT22;1795;52.074;4.754;2022-10-30T00:59:36;14.30;99.90
3562;DHT22;1795;52.074;4.754;2022-10-30T01:02:05;14.20;99.90
3562;DHT22;1795;52.074;4.754;2022-10-30T01:04:35;14.20;99.90
3562;DHT22;1795;52.074;4.754;2022-10-30T01:07:10;14.20;99.90
3562;DHT22;1795;52.074;4.754;2022-10-30T01:09:39;14.20;99.90
3562;DHT22;1795;52.074;4.754;2022-10-30T01:12:07;14.20;99.90
3562;DHT22;1795;52.074;4.754;2022-10-30T01:14:37;14.20;99.90
3562;DHT22;1795;52.074;4.754;2022-10-30T01:23:23;14.10;99.90
3562;DHT22;1795;52.074;4.754;2022-10-30T01:26:00;14.10;99.90
3562;DHT22;1795;52.074;4.754;2022-10-30T01:28:43;14.10;99.90
3562;DHT22;1795;52.074;4.754;2022-10-30T01:31:27;14.00;99.90
3562;DHT22;1795;52.074;4.754;2022-10-30T01:34:12;14.00;99.90
3562;DHT22;1795;52.074;4.754;2022-10-30T01:36:48;14.00;99.90
3562;DHT22;1795;52.074;4.754;2022-10-30T01:39:22;14.00;99.90
3562;DHT22;1795;52.074;4.754;2022-10-30T01:41:50;14.00;99.90
3562;DHT22;1795;52.074;4.754;2022-10-30T01:44:22;14.00;99.90
3562;DHT22;1795;52.074;4.754;2022-10-30T01:47:01;14.00;99.90
3562;DHT22;1795;52.074;4.754;2022-10-30T01:49:58;14.00;99.90
3562;DHT22;1795;52.074;4.754;2022-10-30T01:52:35;13.90;99.90
3562;DHT22;1795;52.074;4.754;2022-10-30T01:55:15;13.90;99.90
3562;DHT22;1795;52.074;4.754;2022-10-30T01:57:53;13.90;99.90
3562;DHT22;1795;52.074;4.754;2022-10-30T02:00:21;13.90;99.90
3562;DHT22;1795;52.074;4.754;2022-10-30T02:02:50;13.90;99.90
3562;DHT22;1795;52.074;4.754;2022-10-30T02:05:24;13.90;99.90
3562;DHT22;1795;52.074;4.754;2022-10-30T02:07:53;13.90;99.90
3562;DHT22;1795;52.074;4.754;2022-10-30T02:10:23;13.90;99.90
3562;DHT22;1795;52.074;4.754;2022-10-30T02:12:51;13.90;99.90
3562;DHT22;1795;52.074;4.754;2022-10-30T02:15:19;13.80;99.90
3562;DHT22;1795;52.074;4.754;2022-10-30T02:17:47;13.80;99.90
3562;DHT22;1795;52.074;4.754;2022-10-30T02:20:17;13.90;99.90
3562;DHT22;1795;52.074;4.754;2022-10-30T02:22:46;13.80;99.90
3562;DHT22;1795;52.074;4.754;2022-10-30T02:25:20;13.80;99.90
3562;DHT22;1795;52.074;4.754;2022-10-30T02:27:47;13.80;99.90
3562;DHT22;1795;52.074;4.754;2022-10-30T02:30:16;13.80;99.90
3562;DHT22;1795;52.074;4.754;2022-10-30T02:32:43;13.80;99.90
3562;DHT22;1795;52.074;4.754;2022-10-30T02:35:11;13.80;99.90
3562;DHT22;1795;52.074;4.754;2022-10-30T02:37:41;13.80;99.90
3562;DHT22;1795;52.074;4.754;2022-10-30T02:40:09;13.80;99.90
3562;DHT22;1795;52.074;4.754;2022-10-30T02:42:37;13.80;99.90
3562;DHT22;1795;52.074;4.754;2022-10-30T02:45:06;13.80;99.90
3562;DHT22;1795;52.074;4.754;2022-10-30T02:47:34;13.80;99.90
3562;DHT22;1795;52.074;4.754;2022-10-30T02:50:03;13.70;99.90
3562;DHT22;1795;52.074;4.754;2022-10-30T02:52:31;13.70;99.90
3562;DHT22;1795;52.074;4.754;2022-10-30T02:55:00;13.70;99.90
3562;DHT22;1795;52.074;4.754;2022-10-30T02:57:28;13.70;99.90
3562;DHT22;1795;52.074;4.754;2022-10-30T02:59:56;13.70;99.90
3562;DHT22;1795;52.074;4.754;2022-10-30T03:02:23;13.70;99.90
3562;DHT22;1795;52.074;4.754;2022-10-30T03:04:51;13.70;99.90
3562;DHT22;1795;52.074;4.754;2022-10-30T03:07:19;13.70;99.90
3562;DHT22;1795;52.074;4.754;2022-10-30T03:09:47;13.70;99.90
3562;DHT22;1795;52.074;4.754;2022-10-30T03:12:16;13.70;99.90
3562;DHT22;1795;52.074;4.754;2022-10-30T03:14:44;13.70;99.90
3562;DHT22;1795;52.074;4.754;2022-10-30T03:17:12;13.70;99.90
3562;DHT22;1795;52.074;4.754;2022-10-30T03:19:42;13.60;99.90
3562;DHT22;1795;52.074;4.754;2022-10-30T03:22:09;13.60;99.90
3562;DHT22;1795;52.074;4.754;2022-10-30T03:24:37;13.60;99.90
3562;DHT22;1795;52.074;4.754;2022-10-30T03:27:05;13.60;99.90
3562;DHT22;1795;52.074;4.754;2022-10-30T03:29:34;13.60;99.90
3562;DHT22;1795;52.074;4.754;2022-10-30T03:32:02;13.60;99.90
3562;DHT22;1795;52.074;4.754;2022-10-30T03:34:30;13.60;99.90
3562;DHT22;1795;52.074;4.754;2022-10-30T03:36:58;13.50;99.90
3562;DHT22;1795;52.074;4.754;2022-10-30T03:39:26;13.50;99.90
3562;DHT22;1795;52.074;4.754;2022-10-30T03:41:54;13.50;99.90
3562;DHT22;1795;52.074;4.754;2022-10-30T03:44:21;13.50;99.90
3562;DHT22;1795;52.074;4.754;2022-10-30T03:46:51;13.50;99.90
3562;DHT22;1795;52.074;4.754;2022-10-30T03:49:18;13.50;99.90
3562;DHT22;1795;52.074;4.754;2022-10-30T03:51:46;13.50;99.90
3562;DHT22;1795;52.074;4.754;2022-10-30T03:54:14;13.40;99.90
3562;DHT22;1795;52.074;4.754;2022-10-30T03:56:43;13.40;99.90
3562;DHT22;1795;52.074;4.754;2022-10-30T03:59:11;13.40;99.90
3562;DHT22;1795;52.074;4.754;2022-10-30T04:01:39;13.40;99.90
3562;DHT22;1795;52.074;4.754;2022-10-30T04:04:08;13.40;99.90
3562;DHT22;1795;52.074;4.754;2022-10-30T04:06:36;13.40;99.90
3562;DHT22;1795;52.074;4.754;2022-10-30T04:09:04;13.40;99.90
3562;DHT22;1795;52.074;4.754;2022-10-30T04:11:32;13.40;99.90
3562;DHT22;1795;52.074;4.754;2022-10-30T04:14:00;13.30;99.90
3562;DHT22;1795;52.074;4.754;2022-10-30T04:16:27;13.30;99.90
3562;DHT22;1795;52.074;4.754;2022-10-30T04:18:55;13.30;99.90
3562;DHT22;1795;52.074;4.754;2022-10-30T04:21:24;13.30;99.90
3562;DHT22;1795;52.074;4.754;2022-10-30T04:23:52;13.30;99.90
3562;DHT22;1795;52.074;4.754;2022-10-30T04:26:20;13.30;99.90
3562;DHT22;1795;52.074;4.754;2022-10-30T04:28:48;13.30;99.90
3562;DHT22;1795;52.074;4.754;2022-10-30T04:31:16;13.30;99.90
3562;DHT22;1795;52.074;4.754;2022-10-30T04:33:44;13.30;99.90
3562;DHT22;1795;52.074;4.754;2022-10-30T04:36:11;13.20;99.90
3562;DHT22;1795;52.074;4.754;2022-10-30T04:38:41;13.20;99.90
3562;DHT22;1795;52.074;4.754;2022-10-30T04:41:09;13.20;99.90
3562;DHT22;1795;52.074;4.754;2022-10-30T04:43:36;13.20;99.90
3562;DHT22;1795;52.074;4.754;2022-10-30T04:46:04;13.20;99.90
3562;DHT22;1795;52.074;4.754;2022-10-30T04:48:32;13.20;99.90
3562;DHT22;1795;52.074;4.754;2022-10-30T04:51:01;13.20;99.90
3562;DHT22;1795;52.074;4.754;2022-10-30T04:53:29;13.20;99.90
3562;DHT22;1795;52.074;4.754;2022-10-30T04:55:58;13.20;99.90
3562;DHT22;1795;52.074;4.754;2022-10-30T04:58:26;13.20;99.90
3562;DHT22;1795;52.074;4.754;2022-10-30T05:00:54;13.10;99.90
3562;DHT22;1795;52.074;4.754;2022-10-30T05:03:28;13.10;99.90
3562;DHT22;1795;52.074;4.754;2022-10-30T05:05:58;13.10;99.90
3562;DHT22;1795;52.074;4.754;2022-10-30T05:08:26;13.10;99.90
3562;DHT22;1795;52.074;4.754;2022-10-30T05:10:55;13.10;99.90
3562;DHT22;1795;52.074;4.754;2022-10-30T05:13:24;13.10;99.90
3562;DHT22;1795;52.074;4.754;2022-10-30T05:15:53;13.10;99.90
3562;DHT22;1795;52.074;4.754;2022-10-30T05:18:21;13.10;99.90
3562;DHT22;1795;52.074;4.754;2022-10-30T05:20:49;13.00;99.90
3562;DHT22;1795;52.074;4.754;2022-10-30T05:23:16;13.00;99.90
3562;DHT22;1795;52.074;4.754;2022-10-30T05:25:44;13.00;99.90
3562;DHT22;1795;52.074;4.754;2022-10-30T05:28:12;13.00;99.90
3562;DHT22;1795;52.074;4.754;2022-10-30T05:30:42;13.00;99.90
3562;DHT22;1795;52.074;4.754;2022-10-30T05:33:11;13.00;99.90
3562;DHT22;1795;52.074;4.754;2022-10-30T05:35:41;13.00;99.90
3562;DHT22;1795;52.074;4.754;2022-10-30T05:38:09;13.00;99.90
3562;DHT22;1795;52.074;4.754;2022-10-30T05:40:37;13.00;99.90
3562;DHT22;1795;52.074;4.754;2022-10-30T05:43:05;12.90;99.90
3562;DHT22;1795;52.074;4.754;2022-10-30T05:45:33;13.00;99.90
3562;DHT22;1795;52.074;4.754;2022-10-30T05:48:03;12.90;99.90
3562;DHT22;1795;52.074;4.754;2022-10-30T05:50:32;12.90;99.90
3562;DHT22;1795;52.074;4.754;2022-10-30T05:53:02;12.90;99.90
3562;DHT22;1795;52.074;4.754;2022-10-30T05:55:30;12.90;99.90
3562;DHT22;1795;52.074;4.754;2022-10-30T05:58:00;12.90;99.90
3562;DHT22;1795;52.074;4.754;2022-10-30T06:00:30;12.90;99.90
3562;DHT22;1795;52.074;4.754;2022-10-30T06:02:58;12.90;99.90
3562;DHT22;1795;52.074;4.754;2022-10-30T06:05:31;12.90;99.90
3562;DHT22;1795;52.074;4.754;2022-10-30T06:08:00;12.90;99.90
3562;DHT22;1795;52.074;4.754;2022-10-30T06:10:28;12.90;99.90
3562;DHT22;1795;52.074;4.754;2022-10-30T06:12:58;12.90;99.90
3562;DHT22;1795;52.074;4.754;2022-10-30T06:15:27;12.90;99.90
3562;DHT22;1795;52.074;4.754;2022-10-30T06:17:55;12.90;99.90
3562;DHT22;1795;52.074;4.754;2022-10-30T06:20:25;12.90;99.90
3562;DHT22;1795;52.074;4.754;2022-10-30T06:22:55;12.90;99.90
3562;DHT22;1795;52.074;4.754;2022-10-30T06:25:24;12.90;99.90
3562;DHT22;1795;52.074;4.754;2022-10-30T06:27:52;12.80;99.90
3562;DHT22;1795;52.074;4.754;2022-10-30T06:30:20;12.80;99.90
3562;DHT22;1795;52.074;4.754;2022-10-30T06:32:48;12.80;99.90
3562;DHT22;1795;52.074;4.754;2022-10-30T06:35:16;12.80;99.90
3562;DHT22;1795;52.074;4.754;2022-10-30T06:37:45;12.80;99.90
3562;DHT22;1795;52.074;4.754;2022-10-30T06:40:14;12.80;99.90
3562;DHT22;1795;52.074;4.754;2022-10-30T06:42:43;12.80;99.90
3562;DHT22;1795;52.074;4.754;2022-10-30T06:45:12;12.80;99.90
3562;DHT22;1795;52.074;4.754;2022-10-30T06:47:40;12.80;99.90
3562;DHT22;1795;52.074;4.754;2022-10-30T06:50:10;12.80;99.90
3562;DHT22;1795;52.074;4.754;2022-10-30T06:52:38;12.80;99.90
3562;DHT22;1795;52.074;4.754;2022-10-30T06:55:07;12.80;99.90
3562;DHT22;1795;52.074;4.754;2022-10-30T06:57:36;12.80;99.90
3562;DHT22;1795;52.074;4.754;2022-10-30T07:00:06;12.80;99.90
3562;DHT22;1795;52.074;4.754;2022-10-30T07:02:34;12.80;99.90
3562;DHT22;1795;52.074;4.754;2022-10-30T07:05:03;12.80;99.90
3562;DHT22;1795;52.074;4.754;2022-10-30T07:07:31;12.80;99.90
3562;DHT22;1795;52.074;4.754;2022-10-30T07:09:59;12.80;99.90
3562;DHT22;1795;52.074;4.754;2022-10-30T07:12:27;12.80;99.90
3562;DHT22;1795;52.074;4.754;2022-10-30T07:14:56;12.80;99.90
3562;DHT22;1795;52.074;4.754;2022-10-30T07:17:24;12.80;99.90
3562;DHT22;1795;52.074;4.754;2022-10-30T07:19:52;12.80;99.90
3562;DHT22;1795;52.074;4.754;2022-10-30T07:22:20;12.80;99.90
3562;DHT22;1795;52.074;4.754;2022-10-30T07:24:48;12.80;99.90
3562;DHT22;1795;52.074;4.754;2022-10-30T07:27:15;12.80;99.90
3562;DHT22;1795;52.074;4.754;2022-10-30T07:29:43;12.80;99.90
3562;DHT22;1795;52.074;4.754;2022-10-30T07:32:12;12.80;99.90
3562;DHT22;1795;52.074;4.754;2022-10-30T07:34:40;12.80;99.90
3562;DHT22;1795;52.074;4.754;2022-10-30T07:37:08;12.90;99.90
3562;DHT22;1795;52.074;4.754;2022-10-30T07:39:36;12.90;99.90
3562;DHT22;1795;52.074;4.754;2022-10-30T07:42:04;12.90;99.90
3562;DHT22;1795;52.074;4.754;2022-10-30T07:44:32;12.90;99.90
3562;DHT22;1795;52.074;4.754;2022-10-30T07:47:00;12.90;99.90
3562;DHT22;1795;52.074;4.754;2022-10-30T07:49:29;12.90;99.90
3562;DHT22;1795;52.074;4.754;2022-10-30T07:51:57;13.00;99.90
3562;DHT22;1795;52.074;4.754;2022-10-30T07:54:24;13.00;99.90
3562;DHT22;1795;52.074;4.754;2022-10-30T07:56:52;13.00;99.90
3562;DHT22;1795;52.074;4.754;2022-10-30T07:59:20;13.00;99.90
3562;DHT22;1795;52.074;4.754;2022-10-30T08:01:48;13.00;99.90
3562;DHT22;1795;52.074;4.754;2022-10-30T08:04:16;13.00;99.90
3562;DHT22;1795;52.074;4.754;2022-10-30T08:06:45;13.00;99.90
3562;DHT22;1795;52.074;4.754;2022-10-30T08:09:13;13.10;99.90
3562;DHT22;1795;52.074;4.754;2022-10-30T08:11:41;13.10;99.90
3562;DHT22;1795;52.074;4.754;2022-10-30T08:14:09;13.10;99.90
3562;DHT22;1795;52.074;4.754;2022-10-30T08:16:37;13.10;99.90
3562;DHT22;1795;52.074;4.754;2022-10-30T08:19:04;13.10;99.90
3562;DHT22;1795;52.074;4.754;2022-10-30T08:21:32;13.20;99.90
3562;DHT22;1795;52.074;4.754;2022-10-30T08:24:02;13.20;99.90
3562;DHT22;1795;52.074;4.754;2022-10-30T08:26:31;13.20;99.90
3562;DHT22;1795;52.074;4.754;2022-10-30T08:28:59;13.20;99.90
3562;DHT22;1795;52.074;4.754;2022-10-30T08:31:26;13.20;99.90
3562;DHT22;1795;52.074;4.754;2022-10-30T08:33:54;13.30;99.90
3562;DHT22;1795;52.074;4.754;2022-10-30T08:36:22;13.30;99.90
3562;DHT22;1795;52.074;4.754;2022-10-30T08:38:50;13.30;99.90
3562;DHT22;1795;52.074;4.754;2022-10-30T08:41:19;13.40;99.90
3562;DHT22;1795;52.074;4.754;2022-10-30T08:43:47;13.40;99.90
3562;DHT22;1795;52.074;4.754;2022-10-30T08:46:15;13.50;99.90
3562;DHT22;1795;52.074;4.754;2022-10-30T08:48:43;13.50;99.90
3562;DHT22;1795;52.074;4.754;2022-10-30T08:51:10;13.60;99.90
3562;DHT22;1795;52.074;4.754;2022-10-30T08:53:38;13.60;99.90
3562;DHT22;1795;52.074;4.754;2022-10-30T08:56:07;13.70;99.90
3562;DHT22;1795;52.074;4.754;2022-10-30T08:58:36;13.70;99.90
3562;DHT22;1795;52.074;4.754;2022-10-30T09:01:04;13.80;99.90
3562;DHT22;1795;52.074;4.754;2022-10-30T09:03:32;13.80;99.90
3562;DHT22;1795;52.074;4.754;2022-10-30T09:06:00;13.80;99.90
3562;DHT22;1795;52.074;4.754;2022-10-30T09:08:28;13.90;99.90
3562;DHT22;1795;52.074;4.754;2022-10-30T09:10:56;13.90;99.90
3562;DHT22;1795;52.074;4.754;2022-10-30T09:13:24;14.00;99.90
3562;DHT22;1795;52.074;4.754;2022-10-30T09:15:58;14.10;99.90
3562;DHT22;1795;52.074;4.754;2022-10-30T09:18:26;14.10;99.90
3562;DHT22;1795;52.074;4.754;2022-10-30T09:20:54;14.10;99.90
3562;DHT22;1795;52.074;4.754;2022-10-30T09:23:22;14.20;99.90
3562;DHT22;1795;52.074;4.754;2022-10-30T09:25:50;14.20;99.90
3562;DHT22;1795;52.074;4.754;2022-10-30T09:28:18;14.30;99.90
3562;DHT22;1795;52.074;4.754;2022-10-30T09:30:45;14.30;99.90
3562;DHT22;1795;52.074;4.754;2022-10-30T09:33:19;14.40;99.90
3562;DHT22;1795;52.074;4.754;2022-10-30T09:35:47;14.50;99.90
3562;DHT22;1795;52.074;4.754;2022-10-30T09:38:15;14.50;99.90
3562;DHT22;1795;52.074;4.754;2022-10-30T09:40:56;14.60;99.90
3562;DHT22;1795;52.074;4.754;2022-10-30T09:43:34;14.60;99.90
3562;DHT22;1795;52.074;4.754;2022-10-30T09:46:15;14.70;99.90
3562;DHT22;1795;52.074;4.754;2022-10-30T09:49:04;14.80;99.90
3562;DHT22;1795;52.074;4.754;2022-10-30T09:52:02;14.80;99.90
3562;DHT22;1795;52.074;4.754;2022-10-30T09:54:41;14.90;99.90
3562;DHT22;1795;52.074;4.754;2022-10-30T09:57:19;15.00;99.90
3562;DHT22;1795;52.074;4.754;2022-10-30T10:00:01;15.00;99.90
3562;DHT22;1795;52.074;4.754;2022-10-30T10:02:33;15.10;99.90
3562;DHT22;1795;52.074;4.754;2022-10-30T10:05:14;15.20;99.90
3562;DHT22;1795;52.074;4.754;2022-10-30T10:07:45;15.20;99.90
3562;DHT22;1795;52.074;4.754;2022-10-30T10:10:19;15.40;99.90
3562;DHT22;1795;52.074;4.754;2022-10-30T10:12:50;15.50;99.90
3562;DHT22;1795;52.074;4.754;2022-10-30T10:15:33;15.60;99.90
3562;DHT22;1795;52.074;4.754;2022-10-30T10:18:10;15.60;99.90
3562;DHT22;1795;52.074;4.754;2022-10-30T10:20:42;15.70;99.90
3562;DHT22;1795;52.074;4.754;2022-10-30T10:23:16;15.70;99.90
3562;DHT22;1795;52.074;4.754;2022-10-30T10:25:50;15.80;99.90
3562;DHT22;1795;52.074;4.754;2022-10-30T10:31:23;16.00;99.90
3562;DHT22;1795;52.074;4.754;2022-10-30T10:34:04;16.00;99.90
3562;DHT22;1795;52.074;4.754;2022-10-30T10:36:43;16.10;99.90
3562;DHT22;1795;52.074;4.754;2022-10-30T10:39:45;16.20;99.90
3562;DHT22;1795;52.074;4.754;2022-10-30T10:42:22;16.30;99.90
3562;DHT22;1795;52.074;4.754;2022-10-30T10:45:05;16.40;99.90
3562;DHT22;1795;52.074;4.754;2022-10-30T10:48:04;16.50;99.90
3562;DHT22;1795;52.074;4.754;2022-10-30T10:50:40;16.60;99.90
3562;DHT22;1795;52.074;4.754;2022-10-30T10:53:17;16.60;99.90
3562;DHT22;1795;52.074;4.754;2022-10-30T10:55:49;16.70;99.90
3562;DHT22;1795;52.074;4.754;2022-10-30T11:00:55;16.90;99.90
3562;DHT22;1795;52.074;4.754;2022-10-30T11:03:31;16.90;99.90
3562;DHT22;1795;52.074;4.754;2022-10-30T11:06:10;17.00;99.90
3562;DHT22;1795;52.074;4.754;2022-10-30T11:08:46;17.00;99.90
3562;DHT22;1795;52.074;4.754;2022-10-30T11:11:14;17.10;99.90
3562;DHT22;1795;52.074;4.754;2022-10-30T11:13:43;17.20;99.90
3562;DHT22;1795;52.074;4.754;2022-10-30T11:16:23;17.20;99.90
3562;DHT22;1795;52.074;4.754;2022-10-30T11:18:56;17.30;99.90
3562;DHT22;1795;52.074;4.754;2022-10-30T11:21:26;17.30;99.90
3562;DHT22;1795;52.074;4.754;2022-10-30T11:23:55;17.40;99.90
3562;DHT22;1795;52.074;4.754;2022-10-30T11:26:30;17.50;99.90
3562;DHT22;1795;52.074;4.754;2022-10-30T11:29:03;17.50;99.90
3562;DHT22;1795;52.074;4.754;2022-10-30T11:31:33;17.60;99.90
3562;DHT22;1795;52.074;4.754;2022-10-30T11:34:23;17.60;99.90
3562;DHT22;1795;52.074;4.754;2022-10-30T11:36:53;17.70;99.90
3562;DHT22;1795;52.074;4.754;2022-10-30T11:39:23;17.70;99.90
3562;DHT22;1795;52.074;4.754;2022-10-30T11:41:57;17.80;99.90
3562;DHT22;1795;52.074;4.754;2022-10-30T11:44:30;17.80;99.90
3562;DHT22;1795;52.074;4.754;2022-10-30T11:46:59;17.90;99.90
3562;DHT22;1795;52.074;4.754;2022-10-30T11:49:36;18.00;99.90
3562;DHT22;1795;52.074;4.754;2022-10-30T11:52:05;18.00;99.90
3562;DHT22;1795;52.074;4.754;2022-10-30T11:54:56;18.00;99.90
3562;DHT22;1795;52.074;4.754;2022-10-30T11:57:30;18.00;99.90
3562;DHT22;1795;52.074;4.754;2022-10-30T12:00:02;18.10;99.90
3562;DHT22;1795;52.074;4.754;2022-10-30T12:02:40;18.10;99.90
3562;DHT22;1795;52.074;4.754;2022-10-30T12:05:29;18.20;99.90
3562;DHT22;1795;52.074;4.754;2022-10-30T12:08:16;18.20;99.90
3562;DHT22;1795;52.074;4.754;2022-10-30T12:10:53;18.30;99.90
3562;DHT22;1795;52.074;4.754;2022-10-30T12:13:23;18.30;99.90
3562;DHT22;1795;52.074;4.754;2022-10-30T12:16:05;18.30;99.90
3562;DHT22;1795;52.074;4.754;2022-10-30T12:18:35;18.40;99.90
3562;DHT22;1795;52.074;4.754;2022-10-30T12:21:04;18.40;99.90
3562;DHT22;1795;52.074;4.754;2022-10-30T12:23:32;18.40;99.90
3562;DHT22;1795;52.074;4.754;2022-10-30T12:26:09;18.50;99.90
3562;DHT22;1795;52.074;4.754;2022-10-30T12:28:38;18.50;99.90
3562;DHT22;1795;52.074;4.754;2022-10-30T12:31:11;18.50;99.90
3562;DHT22;1795;52.074;4.754;2022-10-30T12:33:44;18.50;99.90
3562;DHT22;1795;52.074;4.754;2022-10-30T12:36:19;18.60;99.90
3562;DHT22;1795;52.074;4.754;2022-10-30T12:38:50;18.60;99.90
3562;DHT22;1795;52.074;4.754;2022-10-30T12:41:24;18.60;99.90
3562;DHT22;1795;52.074;4.754;2022-10-30T12:43:58;18.60;99.90
3562;DHT22;1795;52.074;4.754;2022-10-30T12:46:32;18.60;99.90
3562;DHT22;1795;52.074;4.754;2022-10-30T12:49:10;18.70;99.90
3562;DHT22;1795;52.074;4.754;2022-10-30T12:51:48;18.70;99.90
3562;DHT22;1795;52.074;4.754;2022-10-30T12:54:24;18.80;99.90
3562;DHT22;1795;52.074;4.754;2022-10-30T12:57:04;18.80;99.90
3562;DHT22;1795;52.074;4.754;2022-10-30T12:59:40;18.80;99.90
3562;DHT22;1795;52.074;4.754;2022-10-30T13:02:15;18.90;99.90
3562;DHT22;1795;52.074;4.754;2022-10-30T13:04:50;19.00;99.90
3562;DHT22;1795;52.074;4.754;2022-10-30T13:07:25;19.00;99.90
3562;DHT22;1795;52.074;4.754;2022-10-30T13:10:03;19.00;99.90
3562;DHT22;1795;52.074;4.754;2022-10-30T13:12:38;19.00;99.90
3562;DHT22;1795;52.074;4.754;2022-10-30T13:15:15;19.00;99.90
3562;DHT22;1795;52.074;4.754;2022-10-30T13:17:44;19.10;99.90
3562;DHT22;1795;52.074;4.754;2022-10-30T13:20:13;19.10;99.90
3562;DHT22;1795;52.074;4.754;2022-10-30T13:22:46;19.10;99.90
3562;DHT22;1795;52.074;4.754;2022-10-30T13:25:19;19.10;99.90
3562;DHT22;1795;52.074;4.754;2022-10-30T13:27:52;19.20;99.90
3562;DHT22;1795;52.074;4.754;2022-10-30T13:30:24;19.10;99.90
3562;DHT22;1795;52.074;4.754;2022-10-30T13:33:02;19.20;99.90
3562;DHT22;1795;52.074;4.754;2022-10-30T13:35:37;19.20;99.90
3562;DHT22;1795;52.074;4.754;2022-10-30T13:38:22;19.20;99.90
3562;DHT22;1795;52.074;4.754;2022-10-30T13:40:55;19.20;99.90
3562;DHT22;1795;52.074;4.754;2022-10-30T13:43:30;19.20;99.90
3562;DHT22;1795;52.074;4.754;2022-10-30T13:46:25;19.20;99.90
3562;DHT22;1795;52.074;4.754;2022-10-30T13:49:13;19.20;99.90
3562;DHT22;1795;52.074;4.754;2022-10-30T13:51:49;19.20;99.90
3562;DHT22;1795;52.074;4.754;2022-10-30T13:54:24;19.30;99.90
3562;DHT22;1795;52.074;4.754;2022-10-30T13:56:54;19.30;99.90
3562;DHT22;1795;52.074;4.754;2022-10-30T14:02:22;19.30;99.90
3562;DHT22;1795;52.074;4.754;2022-10-30T14:05:00;19.40;99.90
3562;DHT22;1795;52.074;4.754;2022-10-30T14:07:37;19.40;99.90
3562;DHT22;1795;52.074;4.754;2022-10-30T14:10:10;19.40;99.90
3562;DHT22;1795;52.074;4.754;2022-10-30T14:12:49;19.40;99.90
3562;DHT22;1795;52.074;4.754;2022-10-30T14:15:25;19.40;99.90
3562;DHT22;1795;52.074;4.754;2022-10-30T14:21:29;19.40;99.90
3562;DHT22;1795;52.074;4.754;2022-10-30T14:24:02;19.40;99.90
3562;DHT22;1795;52.074;4.754;2022-10-30T14:26:30;19.30;99.90
3562;DHT22;1795;52.074;4.754;2022-10-30T14:32:40;19.30;99.90
3562;DHT22;1795;52.074;4.754;2022-10-30T14:35:38;19.20;99.90
3562;DHT22;1795;52.074;4.754;2022-10-30T14:38:25;19.30;99.90
3562;DHT22;1795;52.074;4.754;2022-10-30T14:41:12;19.30;99.90
3562;DHT22;1795;52.074;4.754;2022-10-30T14:43:48;19.20;99.90
3562;DHT22;1795;52.074;4.754;2022-10-30T14:46:24;19.10;99.90
3562;DHT22;1795;52.074;4.754;2022-10-30T14:49:02;19.00;99.90
3562;DHT22;1795;52.074;4.754;2022-10-30T14:51:36;19.00;99.90
3562;DHT22;1795;52.074;4.754;2022-10-30T14:54:11;18.90;99.90
3562;DHT22;1795;52.074;4.754;2022-10-30T14:56:46;18.90;99.90
3562;DHT22;1795;52.074;4.754;2022-10-30T14:59:23;18.90;99.90
3562;DHT22;1795;52.074;4.754;2022-10-30T15:05:06;18.80;99.90
3562;DHT22;1795;52.074;4.754;2022-10-30T15:07:44;18.80;99.90
3562;DHT22;1795;52.074;4.754;2022-10-30T15:10:19;18.80;99.90
3562;DHT22;1795;52.074;4.754;2022-10-30T15:12:58;18.80;99.90
3562;DHT22;1795;52.074;4.754;2022-10-30T15:15:31;18.70;99.90
3562;DHT22;1795;52.074;4.754;2022-10-30T15:18:02;18.70;99.90
3562;DHT22;1795;52.074;4.754;2022-10-30T15:20:37;18.60;99.90
3562;DHT22;1795;52.074;4.754;2022-10-30T15:23:08;18.60;99.90
3562;DHT22;1795;52.074;4.754;2022-10-30T15:25:44;18.50;99.90
3562;DHT22;1795;52.074;4.754;2022-10-30T15:28:18;18.60;99.90
3562;DHT22;1795;52.074;4.754;2022-10-30T15:31:03;18.50;99.90
3562;DHT22;1795;52.074;4.754;2022-10-30T15:33:34;18.50;99.90
3562;DHT22;1795;52.074;4.754;2022-10-30T15:36:13;18.40;99.90
3562;DHT22;1795;52.074;4.754;2022-10-30T15:38:42;18.40;99.90
3562;DHT22;1795;52.074;4.754;2022-10-30T15:41:10;18.40;99.90
3562;DHT22;1795;52.074;4.754;2022-10-30T15:43:40;18.40;99.90
3562;DHT22;1795;52.074;4.754;2022-10-30T15:46:09;18.30;99.90
3562;DHT22;1795;52.074;4.754;2022-10-30T15:48:39;18.30;99.90
3562;DHT22;1795;52.074;4.754;2022-10-30T15:51:14;18.20;99.90
3562;DHT22;1795;52.074;4.754;2022-10-30T15:53:45;18.20;99.90
3562;DHT22;1795;52.074;4.754;2022-10-30T15:56:17;18.20;99.90
3562;DHT22;1795;52.074;4.754;2022-10-30T15:58:49;18.20;99.90
3562;DHT22;1795;52.074;4.754;2022-10-30T16:01:24;18.10;99.90
3562;DHT22;1795;52.074;4.754;2022-10-30T16:03:53;18.10;99.90
3562;DHT22;1795;52.074;4.754;2022-10-30T16:06:25;18.00;99.90
3562;DHT22;1795;52.074;4.754;2022-10-30T16:08:53;18.00;99.90
3562;DHT22;1795;52.074;4.754;2022-10-30T16:11:22;17.90;99.90
3562;DHT22;1795;52.074;4.754;2022-10-30T16:13:51;17.90;99.90
3562;DHT22;1795;52.074;4.754;2022-10-30T16:16:22;17.90;99.90
3562;DHT22;1795;52.074;4.754;2022-10-30T16:18:52;17.80;99.90
3562;DHT22;1795;52.074;4.754;2022-10-30T16:21:23;17.80;99.90
3562;DHT22;1795;52.074;4.754;2022-10-30T16:23:56;17.70;99.90
3562;DHT22;1795;52.074;4.754;2022-10-30T16:26:28;17.70;99.90
3562;DHT22;1795;52.074;4.754;2022-10-30T16:29:00;17.70;99.90
3562;DHT22;1795;52.074;4.754;2022-10-30T16:31:32;17.70;99.90
3562;DHT22;1795;52.074;4.754;2022-10-30T16:34:02;17.60;99.90
3562;DHT22;1795;52.074;4.754;2022-10-30T16:36:32;17.60;99.90
3562;DHT22;1795;52.074;4.754;2022-10-30T16:39:01;17.50;99.90
3562;DHT22;1795;52.074;4.754;2022-10-30T16:41:30;17.50;99.90
3562;DHT22;1795;52.074;4.754;2022-10-30T16:44:15;17.50;99.90
3562;DHT22;1795;52.074;4.754;2022-10-30T16:46:49;17.40;99.90
3562;DHT22;1795;52.074;4.754;2022-10-30T16:49:19;17.40;99.90
3562;DHT22;1795;52.074;4.754;2022-10-30T16:51:55;17.30;99.90
3562;DHT22;1795;52.074;4.754;2022-10-30T16:54:26;17.30;99.90
3562;DHT22;1795;52.074;4.754;2022-10-30T16:56:57;17.30;99.90